createdAt,value
2019-03-30T00:01:10.446Z,13.57
2019-03-30T00:03:38.745Z,12.53
2019-03-30T00:06:07.024Z,17.33
2019-03-30T00:08:35.335Z,18.17
2019-03-30T00:11:03.675Z,32.03
2019-03-30T00:13:31.988Z,34.27
2019-03-30T00:16:00.278Z,26.97
2019-03-30T00:18:28.554Z,35.43
2019-03-30T00:20:56.865Z,41.53
2019-03-30T00:23:25.145Z,34.53
2019-03-30T00:25:53.459Z,55.47
2019-03-30T00:28:21.727Z,47.13
2019-03-30T00:30:50.027Z,54.07
2019-03-30T00:33:18.316Z,50.27
2019-03-30T00:35:46.614Z,48.20
2019-03-30T00:38:14.959Z,61.93
2019-03-30T00:40:43.260Z,62.43
2019-03-30T00:43:11.560Z,59.70
2019-03-30T00:45:39.935Z,53.93
2019-03-30T00:48:08.208Z,57.73
2019-03-30T00:50:36.585Z,55.17
2019-03-30T00:53:04.873Z,57.63
2019-03-30T00:55:33.178Z,54.40
2019-03-30T00:58:01.525Z,52.13
2019-03-30T01:00:29.837Z,49.93
2019-03-30T01:02:58.120Z,49.47
2019-03-30T01:05:26.495Z,44.83
2019-03-30T01:07:54.902Z,41.53
2019-03-30T01:10:23.240Z,35.40
2019-03-30T01:12:51.542Z,30.33
2019-03-30T01:15:19.857Z,24.67
2019-03-30T01:17:48.127Z,22.93
2019-03-30T01:20:16.509Z,22.50
2019-03-30T01:22:44.784Z,18.87
2019-03-30T01:25:13.136Z,16.73
2019-03-30T01:27:41.441Z,18.00
2019-03-30T01:30:22.381Z,17.97
2019-03-30T01:32:39.783Z,18.83
2019-03-30T01:35:08.202Z,14.57
2019-03-30T01:37:36.502Z,13.93
2019-03-30T01:40:05.843Z,15.77
2019-03-30T01:42:34.221Z,19.73
2019-03-30T01:45:03.565Z,13.60
2019-03-30T01:47:31.875Z,13.07
2019-03-30T01:50:00.366Z,15.73
2019-03-30T01:52:28.732Z,13.23
2019-03-30T01:54:57.003Z,11.90
2019-03-30T01:57:25.301Z,13.47
2019-03-30T01:59:53.574Z,13.53
2019-03-30T02:02:21.871Z,11.63
2019-03-30T02:04:50.156Z,10.50
2019-03-30T02:07:18.500Z,11.23
2019-03-30T02:09:46.804Z,12.70
2019-03-30T02:12:15.142Z,10.03
2019-03-30T02:14:43.439Z,13.97
2019-03-30T02:17:11.720Z,13.33
2019-03-30T02:19:40.093Z,11.07
2019-03-30T02:22:08.356Z,14.80
2019-03-30T02:24:36.730Z,10.30
2019-03-30T02:27:05.065Z,11.27
2019-03-30T02:29:33.364Z,10.33
2019-03-30T02:32:01.636Z,10.47
2019-03-30T02:34:29.963Z,10.63
2019-03-30T02:36:58.313Z,13.13
2019-03-30T02:39:26.691Z,10.20
2019-03-30T02:41:55.041Z,9.17
2019-03-30T02:44:23.391Z,11.47
2019-03-30T02:46:51.669Z,11.80
2019-03-30T02:49:19.963Z,9.87
2019-03-30T02:51:48.242Z,13.20
2019-03-30T02:54:16.545Z,10.97
2019-03-30T02:56:44.826Z,13.47
2019-03-30T02:59:13.192Z,13.93
2019-03-30T03:01:41.540Z,11.97
2019-03-30T03:04:09.857Z,12.23
2019-03-30T03:06:38.143Z,13.83
2019-03-30T03:09:06.687Z,14.27
2019-03-30T03:11:34.985Z,12.93
2019-03-30T03:14:03.262Z,14.07
2019-03-30T03:16:31.601Z,11.70
2019-03-30T03:18:59.918Z,10.97
2019-03-30T03:21:28.220Z,11.33
2019-03-30T03:23:56.627Z,11.97
2019-03-30T03:26:24.920Z,13.13
2019-03-30T03:28:53.209Z,10.97
2019-03-30T03:31:21.508Z,14.53
2019-03-30T03:33:49.870Z,11.60
2019-03-30T03:36:18.161Z,12.93
2019-03-30T03:38:46.509Z,12.77
2019-03-30T03:41:14.802Z,11.47
2019-03-30T03:43:43.074Z,12.23
2019-03-30T03:46:11.375Z,12.23
2019-03-30T03:48:39.648Z,13.33
2019-03-30T03:51:25.018Z,10.57
2019-03-30T03:53:38.002Z,12.67
2019-03-30T03:56:07.164Z,12.77
2019-03-30T03:58:36.104Z,12.27
2019-03-30T04:01:04.782Z,16.03
2019-03-30T04:03:33.322Z,15.07
2019-03-30T04:06:03.276Z,12.50
2019-03-30T04:08:31.623Z,12.17
2019-03-30T04:10:59.898Z,13.90
2019-03-30T04:13:28.843Z,12.97
2019-03-30T04:15:57.288Z,12.43
2019-03-30T04:18:25.583Z,13.40
2019-03-30T04:20:53.855Z,12.60
2019-03-30T04:23:22.157Z,12.37
2019-03-30T04:25:50.432Z,12.53
2019-03-30T04:28:18.731Z,10.70
2019-03-30T04:30:47.071Z,12.30
2019-03-30T04:33:15.378Z,12.87
2019-03-30T04:35:43.732Z,16.50
2019-03-30T04:38:14.269Z,15.70
2019-03-30T04:40:42.003Z,20.87
2019-03-30T04:43:10.313Z,28.73
2019-03-30T04:45:38.673Z,37.50
2019-03-30T04:48:06.973Z,38.93
2019-03-30T04:50:35.251Z,54.33
2019-03-30T04:53:03.554Z,53.83
2019-03-30T04:55:31.899Z,51.00
2019-03-30T04:58:00.206Z,49.20
2019-03-30T05:00:28.557Z,53.93
2019-03-30T05:02:56.857Z,54.73
2019-03-30T05:05:25.139Z,52.70
2019-03-30T05:07:53.471Z,55.97
2019-03-30T05:10:21.752Z,63.67
2019-03-30T05:12:50.068Z,84.00
2019-03-30T05:15:18.343Z,104.00
2019-03-30T05:17:48.072Z,116.97
2019-03-30T05:20:16.616Z,132.47
2019-03-30T05:22:44.897Z,130.33
2019-03-30T05:25:13.216Z,140.10
2019-03-30T05:27:41.506Z,129.23
2019-03-30T05:30:09.998Z,124.00
2019-03-30T05:32:41.517Z,106.87
2019-03-30T05:35:08.531Z,77.37
2019-03-30T05:37:36.816Z,57.80
2019-03-30T05:40:05.789Z,49.20
2019-03-30T05:42:34.065Z,41.60
2019-03-30T05:45:02.646Z,41.40
2019-03-30T05:47:30.994Z,39.10
2019-03-30T05:49:59.311Z,36.00
2019-03-30T05:52:27.588Z,34.40
2019-03-30T05:54:55.887Z,28.93
2019-03-30T05:57:24.194Z,32.27
2019-03-30T05:59:55.672Z,26.93
2019-03-30T06:02:22.477Z,25.03
2019-03-30T06:04:50.850Z,20.57
2019-03-30T06:07:19.131Z,20.30
2019-03-30T06:09:47.454Z,23.77
2019-03-30T06:12:15.799Z,19.33
2019-03-30T06:14:44.202Z,19.23
2019-03-30T06:17:12.638Z,17.97
2019-03-30T06:19:40.936Z,19.17
2019-03-30T06:22:09.249Z,18.83
2019-03-30T06:24:37.531Z,19.97
2019-03-30T06:27:05.870Z,23.80
2019-03-30T06:29:34.139Z,27.20
2019-03-30T06:32:02.509Z,43.90
2019-03-30T06:34:30.855Z,48.47
2019-03-30T06:36:59.243Z,62.77
2019-03-30T06:39:27.549Z,64.27
2019-03-30T06:41:55.861Z,63.37
2019-03-30T06:44:24.148Z,68.40
2019-03-30T06:46:52.443Z,45.33
2019-03-30T06:49:20.719Z,33.40
2019-03-30T06:51:49.024Z,20.37
2019-03-30T06:54:17.307Z,16.53
2019-03-30T06:56:45.617Z,17.10
2019-03-30T06:59:13.918Z,17.60
2019-03-30T07:01:42.300Z,15.10
2019-03-30T07:04:11.364Z,13.97
2019-03-30T07:06:40.371Z,14.33
2019-03-30T07:09:08.719Z,17.50
2019-03-30T07:11:38.665Z,12.10
2019-03-30T07:14:07.181Z,14.83
2019-03-30T07:16:35.561Z,17.63
2019-03-30T07:19:03.913Z,14.20
2019-03-30T07:21:32.231Z,15.13
2019-03-30T07:24:00.537Z,13.90
2019-03-30T07:26:28.941Z,15.83
2019-03-30T07:28:57.249Z,15.30
2019-03-30T07:31:25.598Z,16.10
2019-03-30T07:33:53.918Z,17.07
2019-03-30T07:36:22.282Z,14.27
2019-03-30T07:38:50.576Z,15.23
2019-03-30T07:41:18.923Z,14.57
2019-03-30T07:43:47.240Z,18.20
2019-03-30T07:46:15.531Z,16.30
2019-03-30T07:48:43.972Z,16.33
2019-03-30T07:51:12.269Z,14.90
2019-03-30T07:53:44.823Z,16.63
2019-03-30T07:56:10.664Z,17.17
2019-03-30T07:58:38.983Z,15.03
2019-03-30T08:01:07.424Z,15.87
2019-03-30T08:03:36.099Z,16.17
2019-03-30T08:06:04.478Z,17.97
2019-03-30T08:08:32.933Z,18.07
2019-03-30T08:11:01.221Z,16.93
2019-03-30T08:13:29.712Z,16.63
2019-03-30T08:15:58.019Z,15.50
2019-03-30T08:18:26.345Z,14.97
2019-03-30T08:20:54.778Z,13.70
2019-03-30T08:23:23.076Z,16.23
2019-03-30T08:25:51.384Z,16.83
2019-03-30T08:28:19.648Z,14.80
2019-03-30T08:30:47.966Z,16.03
2019-03-30T08:33:16.310Z,15.77
2019-03-30T08:35:44.629Z,16.87
2019-03-30T08:38:12.917Z,17.50
2019-03-30T08:40:41.219Z,15.03
2019-03-30T08:43:09.576Z,17.13
2019-03-30T08:45:37.878Z,15.00
2019-03-30T08:48:06.228Z,17.57
2019-03-30T08:50:34.793Z,15.50
2019-03-30T08:53:03.170Z,16.70
2019-03-30T08:55:31.600Z,16.30
2019-03-30T08:58:00.084Z,16.83
2019-03-30T09:00:35.092Z,18.10
2019-03-30T09:03:03.436Z,17.17
2019-03-30T09:05:31.823Z,16.13
2019-03-30T09:08:00.091Z,17.77
2019-03-30T09:10:28.396Z,21.00
2019-03-30T09:12:56.740Z,17.33
2019-03-30T09:15:25.050Z,17.93
2019-03-30T09:17:53.423Z,14.93
2019-03-30T09:20:21.803Z,22.33
2019-03-30T09:22:50.181Z,14.60
2019-03-30T09:25:18.484Z,17.53
2019-03-30T09:27:46.784Z,16.73
2019-03-30T09:30:15.134Z,16.33
2019-03-30T09:32:45.014Z,20.00
2019-03-30T09:35:13.679Z,18.40
2019-03-30T09:37:41.967Z,19.03
2019-03-30T09:40:10.337Z,19.93
2019-03-30T09:42:38.719Z,23.00
2019-03-30T09:45:07.061Z,20.20
2019-03-30T09:47:35.673Z,22.47
2019-03-30T09:50:06.422Z,21.70
2019-03-30T09:52:35.296Z,21.20
2019-03-30T09:55:06.179Z,16.70
2019-03-30T09:57:35.003Z,18.13
2019-03-30T10:00:05.183Z,18.30
2019-03-30T10:02:33.917Z,18.20
2019-03-30T10:05:02.738Z,17.57
2019-03-30T10:07:31.564Z,17.10
2019-03-30T10:10:00.417Z,21.17
2019-03-30T10:12:29.151Z,15.17
2019-03-30T10:14:57.883Z,15.50
2019-03-30T10:17:26.664Z,16.67
2019-03-30T10:20:04.280Z,19.40
2019-03-30T10:22:25.799Z,15.47
2019-03-30T10:24:54.545Z,15.43
2019-03-30T10:27:23.267Z,19.20
2019-03-30T10:29:51.997Z,16.03
2019-03-30T10:32:20.711Z,17.43
2019-03-30T10:34:49.514Z,14.27
2019-03-30T10:37:18.229Z,16.03
2019-03-30T10:39:46.980Z,13.23
2019-03-30T10:42:15.761Z,13.53
2019-03-30T10:44:44.571Z,13.60
2019-03-30T10:47:13.345Z,12.80
2019-03-30T10:49:42.156Z,14.93
2019-03-30T10:52:13.963Z,12.73
2019-03-30T10:54:52.522Z,11.37
2019-03-30T10:57:13.573Z,13.50
2019-03-30T10:59:42.382Z,10.00
2019-03-30T11:02:14.575Z,11.33
2019-03-30T11:04:44.199Z,29.23
2019-03-30T11:07:12.915Z,9.10
2019-03-30T11:09:41.715Z,10.20
2019-03-30T11:12:10.445Z,9.80
2019-03-30T11:14:39.187Z,11.80
2019-03-30T11:17:07.905Z,10.33
2019-03-30T11:19:36.633Z,10.93
2019-03-30T11:22:05.346Z,9.67
2019-03-30T11:24:35.429Z,10.03
2019-03-30T11:27:04.277Z,10.67
2019-03-30T11:29:33.010Z,13.33
2019-03-30T11:32:01.845Z,9.53
2019-03-30T11:34:30.606Z,11.50
2019-03-30T11:36:59.483Z,8.90
2019-03-30T11:39:28.439Z,9.23
2019-03-30T11:41:57.894Z,12.00
2019-03-30T11:44:29.456Z,8.00
2019-03-30T11:46:59.267Z,8.53
2019-03-30T11:49:28.364Z,10.57
2019-03-30T11:51:59.890Z,9.23
2019-03-30T11:54:28.838Z,9.67
2019-03-30T11:56:57.729Z,10.70
2019-03-30T11:59:26.751Z,10.27
2019-03-30T12:01:55.550Z,8.60
2019-03-30T12:04:24.335Z,10.30
2019-03-30T12:06:53.413Z,8.37
2019-03-30T12:09:22.220Z,12.20
2019-03-30T12:11:50.949Z,10.53
2019-03-30T12:14:19.724Z,10.80
2019-03-30T12:16:48.534Z,11.47
2019-03-30T12:19:17.292Z,12.00
2019-03-30T12:21:46.085Z,11.40
2019-03-30T12:24:14.859Z,11.57
2019-03-30T12:26:43.669Z,11.90
2019-03-30T12:29:12.405Z,7.87
2019-03-30T12:31:41.199Z,13.93
2019-03-30T12:34:12.936Z,9.00
2019-03-30T12:36:40.571Z,11.30
2019-03-30T12:39:09.374Z,12.40
2019-03-30T12:41:38.151Z,11.73
2019-03-30T12:44:06.956Z,13.30
2019-03-30T12:46:35.675Z,13.57
2019-03-30T12:49:04.472Z,10.80
2019-03-30T12:51:33.180Z,13.13
2019-03-30T12:54:01.985Z,12.33
2019-03-30T12:56:30.751Z,14.07
2019-03-30T12:58:59.490Z,15.80
2019-03-30T13:01:28.264Z,13.53
2019-03-30T13:03:56.989Z,11.70
2019-03-30T13:06:25.847Z,15.40
2019-03-30T13:08:54.651Z,12.43
2019-03-30T13:11:23.389Z,13.53
2019-03-30T13:13:52.240Z,12.30
2019-03-30T13:16:20.955Z,15.03
2019-03-30T13:18:49.840Z,11.80
2019-03-30T13:21:18.624Z,15.00
2019-03-30T13:23:47.440Z,15.30
2019-03-30T13:26:16.313Z,11.47
2019-03-30T13:28:45.040Z,11.67
2019-03-30T13:31:13.811Z,11.80
2019-03-30T13:33:42.579Z,14.53
2019-03-30T13:36:11.305Z,12.03
2019-03-30T13:38:40.079Z,13.83
2019-03-30T13:41:08.895Z,14.43
2019-03-30T13:43:37.613Z,12.53
2019-03-30T13:46:06.357Z,12.03
2019-03-30T13:48:35.172Z,13.13
2019-03-30T13:51:03.901Z,11.63
2019-03-30T13:53:32.612Z,11.33
2019-03-30T13:56:01.346Z,12.43
2019-03-30T13:58:30.128Z,13.23
2019-03-30T14:00:58.853Z,12.57
2019-03-30T14:03:27.561Z,12.83
2019-03-30T14:05:56.362Z,13.30
2019-03-30T14:08:25.084Z,17.10
2019-03-30T14:10:53.840Z,12.67
2019-03-30T14:13:22.556Z,15.23
2019-03-30T14:15:51.296Z,11.43
2019-03-30T14:18:20.028Z,14.90
2019-03-30T14:20:48.895Z,14.40
2019-03-30T14:23:17.664Z,12.37
2019-03-30T14:25:46.399Z,13.87
2019-03-30T14:28:15.109Z,10.97
2019-03-30T14:30:43.866Z,10.87
2019-03-30T14:33:12.584Z,12.43
2019-03-30T14:35:43.735Z,12.37
2019-03-30T14:38:12.832Z,9.53
2019-03-30T14:40:41.535Z,10.40
2019-03-30T14:43:10.275Z,9.20
2019-03-30T14:45:38.980Z,10.53
2019-03-30T14:48:07.783Z,12.40
2019-03-30T14:50:36.497Z,11.73
2019-03-30T14:53:05.335Z,11.27
2019-03-30T14:55:34.102Z,9.90
2019-03-30T14:58:02.910Z,14.17
2019-03-30T15:00:31.747Z,10.73
2019-03-30T15:03:00.546Z,13.20
2019-03-30T15:05:29.249Z,10.93
2019-03-30T15:07:57.973Z,9.87
2019-03-30T15:10:26.827Z,9.07
2019-03-30T15:12:55.624Z,10.60
2019-03-30T15:15:24.332Z,9.67
2019-03-30T15:17:53.071Z,11.73
2019-03-30T15:20:21.819Z,12.33
2019-03-30T15:22:50.761Z,12.20
2019-03-30T15:25:19.601Z,11.43
2019-03-30T15:27:48.335Z,10.37
2019-03-30T15:30:17.192Z,10.77
2019-03-30T15:32:46.008Z,12.57
2019-03-30T15:35:14.792Z,11.70
2019-03-30T15:37:43.592Z,12.57
2019-03-30T15:40:12.612Z,14.27
2019-03-30T15:42:41.346Z,14.23
2019-03-30T15:45:10.948Z,12.63
2019-03-30T15:47:39.723Z,12.07
2019-03-30T15:50:09.314Z,11.83
2019-03-30T15:52:38.036Z,11.37
2019-03-30T15:55:07.229Z,13.13
2019-03-30T15:57:36.268Z,11.40
2019-03-30T16:00:10.891Z,12.13
2019-03-30T16:02:39.634Z,11.57
2019-03-30T16:05:08.724Z,12.10
2019-03-30T16:07:37.583Z,15.10
2019-03-30T16:10:06.767Z,11.80
2019-03-30T16:12:35.672Z,12.07
2019-03-30T16:15:07.988Z,11.47
2019-03-30T16:17:36.707Z,12.17
2019-03-30T16:20:07.047Z,10.70
2019-03-30T16:22:35.761Z,15.53
2019-03-30T16:25:06.245Z,14.17
2019-03-30T16:27:35.103Z,14.17
2019-03-30T16:30:06.454Z,16.07
2019-03-30T16:32:35.233Z,14.10
2019-03-30T16:35:04.530Z,13.77
2019-03-30T16:37:33.406Z,14.07
2019-03-30T16:40:02.506Z,10.97
2019-03-30T16:42:31.235Z,9.30
2019-03-30T16:44:59.943Z,12.93
2019-03-30T16:47:28.676Z,14.33
2019-03-30T16:49:57.389Z,15.17
2019-03-30T16:52:26.207Z,12.63
2019-03-30T16:54:54.927Z,13.80
2019-03-30T16:57:23.727Z,13.97
2019-03-30T16:59:52.466Z,14.67
2019-03-30T17:02:21.323Z,16.03
2019-03-30T17:04:50.107Z,15.20
2019-03-30T17:07:18.968Z,10.80
2019-03-30T17:09:47.701Z,10.47
2019-03-30T17:12:16.431Z,11.70
2019-03-30T17:14:45.149Z,12.10
2019-03-30T17:17:13.870Z,11.67
2019-03-30T17:19:42.580Z,11.60
2019-03-30T17:22:11.310Z,11.33
2019-03-30T17:24:40.035Z,12.87
2019-03-30T17:27:08.838Z,13.03
2019-03-30T17:29:37.621Z,14.10
2019-03-30T17:32:06.363Z,13.23
2019-03-30T17:34:35.094Z,12.40
2019-03-30T17:37:03.981Z,12.80
2019-03-30T17:39:32.766Z,14.23
2019-03-30T17:42:01.560Z,15.37
2019-03-30T17:44:30.311Z,12.27
2019-03-30T17:46:59.027Z,14.67
2019-03-30T17:49:27.843Z,11.53
2019-03-30T17:51:56.612Z,14.10
2019-03-30T17:54:25.436Z,13.73
2019-03-30T17:56:54.153Z,14.93
2019-03-30T17:59:23.769Z,14.47
2019-03-30T18:01:52.705Z,16.33
2019-03-30T18:04:21.463Z,14.10
2019-03-30T18:06:50.181Z,14.30
2019-03-30T18:09:19.124Z,13.87
2019-03-30T18:11:47.918Z,15.93
2019-03-30T18:14:16.685Z,15.53
2019-03-30T18:16:45.608Z,17.37
2019-03-30T18:19:14.404Z,16.43
2019-03-30T18:21:43.495Z,20.83
2019-03-30T18:24:12.413Z,21.40
2019-03-30T18:26:41.169Z,20.50
2019-03-30T18:29:09.991Z,19.87
2019-03-30T18:31:39.479Z,20.40
2019-03-30T18:34:08.413Z,19.03
2019-03-30T18:36:38.772Z,18.67
2019-03-30T18:39:09.857Z,22.50
2019-03-30T18:41:38.219Z,24.93
2019-03-30T18:44:07.214Z,28.43
2019-03-30T18:46:35.928Z,21.73
2019-03-30T18:49:04.747Z,25.33
2019-03-30T18:51:34.320Z,24.10
2019-03-30T18:54:03.375Z,24.07
2019-03-30T18:56:32.140Z,21.87
2019-03-30T18:59:00.863Z,21.03
2019-03-30T19:01:29.686Z,28.83
2019-03-30T19:03:58.390Z,26.80
2019-03-30T19:06:27.302Z,26.00
2019-03-30T19:08:56.015Z,30.80
2019-03-30T19:11:24.783Z,36.40
2019-03-30T19:13:53.625Z,43.33
2019-03-30T19:16:22.370Z,29.07
2019-03-30T19:18:51.235Z,26.13
2019-03-30T19:21:19.984Z,27.40
2019-03-30T19:23:48.746Z,35.00
2019-03-30T19:26:17.490Z,37.50
2019-03-30T19:28:56.111Z,33.37
2019-03-30T19:31:16.728Z,41.90
2019-03-30T19:33:45.442Z,32.43
2019-03-30T19:36:14.200Z,30.73
2019-03-30T19:38:42.922Z,25.73
2019-03-30T19:41:11.730Z,24.10
2019-03-30T19:43:40.436Z,25.70
2019-03-30T19:46:09.201Z,28.03
2019-03-30T19:48:37.993Z,29.13
2019-03-30T19:51:06.795Z,28.93
2019-03-30T19:53:35.668Z,25.37
2019-03-30T19:56:04.639Z,26.93
2019-03-30T19:58:33.549Z,23.90
2019-03-30T20:01:02.398Z,25.47
2019-03-30T20:03:34.161Z,25.90
2019-03-30T20:06:03.021Z,29.97
2019-03-30T20:08:31.913Z,28.63
2019-03-30T20:11:00.691Z,29.70
2019-03-30T20:13:29.438Z,27.83
2019-03-30T20:15:58.142Z,28.73
2019-03-30T20:18:26.958Z,36.03
2019-03-30T20:20:55.675Z,26.50
2019-03-30T20:23:24.427Z,32.67
2019-03-30T20:25:53.180Z,29.70
2019-03-30T20:28:22.005Z,33.67
2019-03-30T20:30:50.860Z,30.10
2019-03-30T20:33:19.665Z,26.30
2019-03-30T20:35:48.381Z,25.27
2019-03-30T20:38:17.198Z,27.83
2019-03-30T20:40:45.920Z,30.10
2019-03-30T20:43:14.687Z,29.87
2019-03-30T20:45:43.408Z,27.43
2019-03-30T20:48:12.169Z,29.27
2019-03-30T20:50:40.902Z,26.03
2019-03-30T20:53:09.614Z,27.57
2019-03-30T20:55:38.358Z,27.77
2019-03-30T20:58:07.069Z,30.00
2019-03-30T21:00:35.948Z,30.87
2019-03-30T21:03:04.733Z,27.27
2019-03-30T21:05:33.942Z,31.07
2019-03-30T21:08:02.801Z,29.70
2019-03-30T21:10:31.542Z,29.83
2019-03-30T21:13:00.256Z,37.97
2019-03-30T21:15:29.071Z,32.17
2019-03-30T21:17:57.868Z,37.17
2019-03-30T21:20:26.682Z,33.70
2019-03-30T21:22:55.395Z,36.10
2019-03-30T21:25:24.144Z,35.63
2019-03-30T21:27:52.858Z,32.30
2019-03-30T21:30:21.734Z,33.73
2019-03-30T21:32:50.512Z,33.13
2019-03-30T21:35:19.251Z,33.07
2019-03-30T21:37:47.962Z,31.73
2019-03-30T21:40:16.771Z,34.87
2019-03-30T21:42:45.485Z,36.77
2019-03-30T21:45:14.372Z,37.93
2019-03-30T21:47:43.152Z,38.43
2019-03-30T21:50:11.860Z,35.93
2019-03-30T21:52:40.592Z,40.93
2019-03-30T21:55:09.741Z,37.03
2019-03-30T21:57:38.497Z,40.27
2019-03-30T22:00:10.552Z,37.97
2019-03-30T22:02:37.163Z,43.17
2019-03-30T22:05:06.015Z,43.03
2019-03-30T22:07:34.375Z,38.93
2019-03-30T22:10:04.356Z,41.30
2019-03-30T22:12:32.708Z,43.77
2019-03-30T22:15:00.987Z,41.67
2019-03-30T22:17:29.295Z,41.50
2019-03-30T22:19:57.822Z,41.30
2019-03-30T22:22:26.558Z,44.57
2019-03-30T22:24:55.265Z,42.50
2019-03-30T22:27:24.010Z,45.30
2019-03-30T22:29:52.881Z,48.50
2019-03-30T22:32:21.627Z,43.83
2019-03-30T22:34:50.343Z,50.27
2019-03-30T22:37:19.150Z,45.67
2019-03-30T22:39:47.866Z,54.33
2019-03-30T22:42:16.666Z,46.87
2019-03-30T22:44:45.385Z,48.07
2019-03-30T22:47:14.126Z,46.80
2019-03-30T22:49:42.853Z,47.63
2019-03-30T22:52:11.612Z,49.90
2019-03-30T22:54:40.329Z,47.07
2019-03-30T22:57:09.068Z,47.90
2019-03-30T22:59:37.792Z,48.53
2019-03-30T23:02:06.675Z,49.93
2019-03-30T23:04:35.378Z,52.37
2019-03-30T23:07:04.172Z,58.97
2019-03-30T23:09:32.911Z,48.83
2019-03-30T23:12:01.633Z,53.23
2019-03-30T23:14:30.453Z,48.13
2019-03-30T23:16:59.165Z,55.53
2019-03-30T23:19:27.918Z,52.27
2019-03-30T23:21:56.634Z,46.50
2019-03-30T23:24:25.368Z,49.30
2019-03-30T23:26:54.080Z,46.53
2019-03-30T23:29:22.896Z,44.43
2019-03-30T23:31:51.604Z,49.57
2019-03-30T23:34:20.428Z,52.87
2019-03-30T23:36:49.229Z,54.33
2019-03-30T23:39:18.046Z,55.30
2019-03-30T23:41:46.767Z,49.53
2019-03-30T23:44:15.635Z,48.87
2019-03-30T23:46:44.351Z,50.60
2019-03-30T23:49:13.084Z,58.73
2019-03-30T23:51:41.805Z,54.77
2019-03-30T23:54:12.755Z,49.40
2019-03-30T23:56:41.532Z,53.70
2019-03-30T23:59:10.344Z,51.50
